Main page
METAR-TAF:

METAR-TAF

Airports :

Bilbao Airport

Bilbao, Spain

latitude: 43-18N, longitude: 002-56W, elevation: 42 m

Current weather observation

The report was made 26 minutes ago, at 22:30 UTC
Wind 8 kt from the East/Southeast, varying between East/Northeast and West/Southwest
Temperature 14°C
Humidity 55%
Pressure 1015 hPa
Visibility 10 km or more
no clouds below 1500 m and no cumulonimbus

METAR: LEBB 242230Z 12008KT 070V240 CAVOK 14/05 Q1015 NOSIG

Time: 23:56 (22:56 UTC)

Forecast

The report was made 5 hours and 56 minutes ago, at 17:00 UTC
Forecast valid from 24 at 18 UTC to 25 at 18 UTC
Wind 5 kt from variable directions
Visibility 10 km or more
no clouds below 1500 m and no cumulonimbus
Temporary
from 24 at 18 UTC to 25 at 18 UTC
Wind 12 kt from the South

TAF: LEBB 241700Z 2418/2518 VRB05KT CAVOK TX15/2514Z TN09/2506Z TEMPO 2418/2518 17012KT

Weather observations and forecasts of more than 4000 airports (METAR and TAF reports).

The available stations are represented by yellow and red dots on the map.

Hover mouse over dot to see the name of the station.

Then click to see weather observations and forecasts.

To change the map : click on the green buttons with a black cross to zoom in, on the green button with a dash to zoom out, or on the green arrows for adjacent maps.


METAR-TAF: